sensor_id;sensor_type;location;lat;lon;timestamp;P1;durP1;ratioP1;P2;durP2;ratioP2
20637;SDS011;10478;49.004;8.470;2023-04-08T00:01:28;6.25;;;4.32;;
20637;SDS011;10478;49.004;8.470;2023-04-08T00:03:53;11.60;;;3.97;;
20637;SDS011;10478;49.004;8.470;2023-04-08T00:06:19;7.50;;;4.07;;
20637;SDS011;10478;49.004;8.470;2023-04-08T00:08:44;6.15;;;3.63;;
20637;SDS011;10478;49.004;8.470;2023-04-08T00:11:10;9.05;;;4.35;;
20637;SDS011;10478;49.004;8.470;2023-04-08T00:13:35;5.30;;;4.00;;
20637;SDS011;10478;49.004;8.470;2023-04-08T00:16:00;7.75;;;4.13;;
20637;SDS011;10478;49.004;8.470;2023-04-08T00:18:25;6.10;;;4.18;;
20637;SDS011;10478;49.004;8.470;2023-04-08T00:20:51;7.15;;;4.55;;
20637;SDS011;10478;49.004;8.470;2023-04-08T00:23:17;7.55;;;4.45;;
20637;SDS011;10478;49.004;8.470;2023-04-08T00:25:42;5.78;;;3.90;;
20637;SDS011;10478;49.004;8.470;2023-04-08T00:28:07;9.68;;;4.53;;
20637;SDS011;10478;49.004;8.470;2023-04-08T00:30:33;8.93;;;4.43;;
20637;SDS011;10478;49.004;8.470;2023-04-08T00:32:58;7.93;;;4.38;;
20637;SDS011;10478;49.004;8.470;2023-04-08T00:35:24;6.70;;;4.25;;
20637;SDS011;10478;49.004;8.470;2023-04-08T00:37:49;7.53;;;4.10;;
20637;SDS011;10478;49.004;8.470;2023-04-08T00:40:15;7.32;;;4.38;;
20637;SDS011;10478;49.004;8.470;2023-04-08T00:42:40;9.95;;;4.82;;
20637;SDS011;10478;49.004;8.470;2023-04-08T00:45:06;7.53;;;3.65;;
20637;SDS011;10478;49.004;8.470;2023-04-08T00:47:32;5.13;;;3.72;;
20637;SDS011;10478;49.004;8.470;2023-04-08T00:49:57;7.30;;;4.45;;
20637;SDS011;10478;49.004;8.470;2023-04-08T00:52:22;8.65;;;4.38;;
20637;SDS011;10478;49.004;8.470;2023-04-08T00:54:48;5.85;;;3.45;;
20637;SDS011;10478;49.004;8.470;2023-04-08T00:57:13;5.82;;;3.80;;
20637;SDS011;10478;49.004;8.470;2023-04-08T00:59:38;8.60;;;4.75;;
20637;SDS011;10478;49.004;8.470;2023-04-08T01:05:06;7.55;;;3.72;;
20637;SDS011;10478;49.004;8.470;2023-04-08T01:07:46;7.80;;;4.15;;
20637;SDS011;10478;49.004;8.470;2023-04-08T01:10:25;7.40;;;4.40;;
20637;SDS011;10478;49.004;8.470;2023-04-08T01:12:54;7.90;;;4.10;;
20637;SDS011;10478;49.004;8.470;2023-04-08T01:15:20;7.93;;;4.20;;
20637;SDS011;10478;49.004;8.470;2023-04-08T01:17:46;6.40;;;4.20;;
20637;SDS011;10478;49.004;8.470;2023-04-08T01:20:12;8.73;;;3.90;;
20637;SDS011;10478;49.004;8.470;2023-04-08T01:27:57;8.05;;;4.65;;
20637;SDS011;10478;49.004;8.470;2023-04-08T01:30:23;6.50;;;4.72;;
20637;SDS011;10478;49.004;8.470;2023-04-08T01:32:50;8.77;;;4.38;;
20637;SDS011;10478;49.004;8.470;2023-04-08T01:35:17;6.32;;;4.10;;
20637;SDS011;10478;49.004;8.470;2023-04-08T01:37:43;8.02;;;4.57;;
20637;SDS011;10478;49.004;8.470;2023-04-08T01:40:09;7.82;;;4.68;;
20637;SDS011;10478;49.004;8.470;2023-04-08T01:42:35;8.98;;;4.47;;
20637;SDS011;10478;49.004;8.470;2023-04-08T01:45:00;6.75;;;4.15;;
20637;SDS011;10478;49.004;8.470;2023-04-08T01:47:27;10.18;;;4.95;;
20637;SDS011;10478;49.004;8.470;2023-04-08T01:49:53;9.82;;;4.63;;
20637;SDS011;10478;49.004;8.470;2023-04-08T01:52:19;6.80;;;4.55;;
20637;SDS011;10478;49.004;8.470;2023-04-08T01:54:45;10.10;;;5.70;;
20637;SDS011;10478;49.004;8.470;2023-04-08T01:57:11;7.90;;;3.83;;
20637;SDS011;10478;49.004;8.470;2023-04-08T01:59:39;9.38;;;4.80;;
20637;SDS011;10478;49.004;8.470;2023-04-08T02:02:05;7.38;;;4.63;;
20637;SDS011;10478;49.004;8.470;2023-04-08T02:04:33;9.15;;;5.05;;
20637;SDS011;10478;49.004;8.470;2023-04-08T02:06:59;10.13;;;4.80;;
20637;SDS011;10478;49.004;8.470;2023-04-08T02:09:25;8.38;;;4.32;;
20637;SDS011;10478;49.004;8.470;2023-04-08T02:11:51;10.23;;;5.55;;
20637;SDS011;10478;49.004;8.470;2023-04-08T02:14:16;11.55;;;4.25;;
20637;SDS011;10478;49.004;8.470;2023-04-08T02:16:43;10.25;;;4.53;;
20637;SDS011;10478;49.004;8.470;2023-04-08T02:19:14;9.82;;;4.25;;
20637;SDS011;10478;49.004;8.470;2023-04-08T02:21:47;8.02;;;4.20;;
20637;SDS011;10478;49.004;8.470;2023-04-08T02:24:14;10.30;;;4.57;;
20637;SDS011;10478;49.004;8.470;2023-04-08T02:26:41;9.55;;;4.80;;
20637;SDS011;10478;49.004;8.470;2023-04-08T02:29:09;8.55;;;5.30;;
20637;SDS011;10478;49.004;8.470;2023-04-08T02:31:36;10.70;;;5.57;;
20637;SDS011;10478;49.004;8.470;2023-04-08T02:34:03;8.00;;;4.88;;
20637;SDS011;10478;49.004;8.470;2023-04-08T02:36:29;9.25;;;5.05;;
20637;SDS011;10478;49.004;8.470;2023-04-08T02:38:56;8.75;;;4.95;;
20637;SDS011;10478;49.004;8.470;2023-04-08T02:41:21;9.13;;;4.65;;
20637;SDS011;10478;49.004;8.470;2023-04-08T02:43:47;10.00;;;4.93;;
20637;SDS011;10478;49.004;8.470;2023-04-08T02:46:12;11.40;;;6.25;;
20637;SDS011;10478;49.004;8.470;2023-04-08T02:48:37;10.82;;;5.00;;
20637;SDS011;10478;49.004;8.470;2023-04-08T02:51:03;9.32;;;5.32;;
20637;SDS011;10478;49.004;8.470;2023-04-08T02:53:28;8.68;;;4.78;;
20637;SDS011;10478;49.004;8.470;2023-04-08T02:55:53;8.27;;;4.38;;
20637;SDS011;10478;49.004;8.470;2023-04-08T02:58:18;11.82;;;5.38;;
20637;SDS011;10478;49.004;8.470;2023-04-08T03:00:44;10.40;;;5.25;;
20637;SDS011;10478;49.004;8.470;2023-04-08T03:03:09;8.70;;;4.88;;
20637;SDS011;10478;49.004;8.470;2023-04-08T03:05:35;8.77;;;5.22;;
20637;SDS011;10478;49.004;8.470;2023-04-08T03:08:00;10.18;;;4.50;;
20637;SDS011;10478;49.004;8.470;2023-04-08T03:10:26;9.00;;;5.13;;
20637;SDS011;10478;49.004;8.470;2023-04-08T03:12:51;12.63;;;5.80;;
20637;SDS011;10478;49.004;8.470;2023-04-08T03:15:16;11.20;;;4.63;;
20637;SDS011;10478;49.004;8.470;2023-04-08T03:17:42;13.98;;;5.55;;
20637;SDS011;10478;49.004;8.470;2023-04-08T03:20:07;10.68;;;5.78;;
20637;SDS011;10478;49.004;8.470;2023-04-08T03:22:32;11.25;;;5.40;;
20637;SDS011;10478;49.004;8.470;2023-04-08T03:24:58;12.57;;;5.88;;
20637;SDS011;10478;49.004;8.470;2023-04-08T03:27:23;12.10;;;5.60;;
20637;SDS011;10478;49.004;8.470;2023-04-08T03:29:49;12.95;;;4.75;;
20637;SDS011;10478;49.004;8.470;2023-04-08T03:32:14;13.93;;;6.40;;
20637;SDS011;10478;49.004;8.470;2023-04-08T03:34:40;11.25;;;6.05;;
20637;SDS011;10478;49.004;8.470;2023-04-08T03:37:05;12.65;;;5.80;;
20637;SDS011;10478;49.004;8.470;2023-04-08T03:39:31;14.90;;;6.57;;
20637;SDS011;10478;49.004;8.470;2023-04-08T03:41:57;13.20;;;6.47;;
20637;SDS011;10478;49.004;8.470;2023-04-08T03:44:24;13.60;;;6.82;;
20637;SDS011;10478;49.004;8.470;2023-04-08T03:46:50;9.57;;;5.55;;
20637;SDS011;10478;49.004;8.470;2023-04-08T03:49:15;13.23;;;5.65;;
20637;SDS011;10478;49.004;8.470;2023-04-08T03:51:40;14.98;;;5.95;;
20637;SDS011;10478;49.004;8.470;2023-04-08T03:54:06;14.48;;;5.78;;
20637;SDS011;10478;49.004;8.470;2023-04-08T03:56:31;13.07;;;6.60;;
20637;SDS011;10478;49.004;8.470;2023-04-08T03:58:57;13.23;;;5.75;;
20637;SDS011;10478;49.004;8.470;2023-04-08T04:01:22;12.43;;;5.63;;
20637;SDS011;10478;49.004;8.470;2023-04-08T04:03:47;16.02;;;6.70;;
20637;SDS011;10478;49.004;8.470;2023-04-08T04:06:13;13.70;;;7.03;;
20637;SDS011;10478;49.004;8.470;2023-04-08T04:08:38;16.55;;;6.50;;
20637;SDS011;10478;49.004;8.470;2023-04-08T04:11:03;15.32;;;6.75;;
20637;SDS011;10478;49.004;8.470;2023-04-08T04:13:28;17.80;;;7.30;;
20637;SDS011;10478;49.004;8.470;2023-04-08T04:15:54;14.15;;;6.80;;
20637;SDS011;10478;49.004;8.470;2023-04-08T04:18:19;19.70;;;7.13;;
20637;SDS011;10478;49.004;8.470;2023-04-08T04:20:44;19.33;;;8.25;;
20637;SDS011;10478;49.004;8.470;2023-04-08T04:23:10;13.65;;;7.05;;
20637;SDS011;10478;49.004;8.470;2023-04-08T04:25:35;12.82;;;6.45;;
20637;SDS011;10478;49.004;8.470;2023-04-08T04:28:00;12.02;;;6.45;;
20637;SDS011;10478;49.004;8.470;2023-04-08T04:30:27;12.55;;;6.25;;
20637;SDS011;10478;49.004;8.470;2023-04-08T04:32:52;20.10;;;7.82;;
20637;SDS011;10478;49.004;8.470;2023-04-08T04:35:18;12.45;;;6.85;;
20637;SDS011;10478;49.004;8.470;2023-04-08T04:37:43;13.63;;;6.80;;
20637;SDS011;10478;49.004;8.470;2023-04-08T04:40:08;15.50;;;7.13;;
20637;SDS011;10478;49.004;8.470;2023-04-08T04:42:34;14.13;;;6.70;;
20637;SDS011;10478;49.004;8.470;2023-04-08T04:44:59;13.65;;;7.18;;
20637;SDS011;10478;49.004;8.470;2023-04-08T04:47:25;16.60;;;7.13;;
20637;SDS011;10478;49.004;8.470;2023-04-08T04:49:50;17.95;;;7.50;;
20637;SDS011;10478;49.004;8.470;2023-04-08T04:52:15;14.88;;;7.68;;
20637;SDS011;10478;49.004;8.470;2023-04-08T04:54:41;21.75;;;8.63;;
20637;SDS011;10478;49.004;8.470;2023-04-08T04:57:06;15.80;;;7.07;;
20637;SDS011;10478;49.004;8.470;2023-04-08T04:59:31;16.80;;;7.97;;
20637;SDS011;10478;49.004;8.470;2023-04-08T05:01:57;16.27;;;8.10;;
20637;SDS011;10478;49.004;8.470;2023-04-08T05:04:22;14.65;;;7.47;;
20637;SDS011;10478;49.004;8.470;2023-04-08T05:06:48;15.43;;;8.13;;
20637;SDS011;10478;49.004;8.470;2023-04-08T05:09:14;15.85;;;7.18;;
20637;SDS011;10478;49.004;8.470;2023-04-08T05:11:39;17.13;;;8.70;;
20637;SDS011;10478;49.004;8.470;2023-04-08T05:14:05;17.73;;;8.20;;
20637;SDS011;10478;49.004;8.470;2023-04-08T05:16:31;16.25;;;8.90;;
20637;SDS011;10478;49.004;8.470;2023-04-08T05:18:56;18.88;;;9.25;;
20637;SDS011;10478;49.004;8.470;2023-04-08T05:21:22;17.70;;;7.85;;
20637;SDS011;10478;49.004;8.470;2023-04-08T05:23:47;20.55;;;9.88;;
20637;SDS011;10478;49.004;8.470;2023-04-08T05:26:14;17.73;;;9.95;;
20637;SDS011;10478;49.004;8.470;2023-04-08T05:28:40;18.33;;;8.77;;
20637;SDS011;10478;49.004;8.470;2023-04-08T05:31:05;16.70;;;8.88;;
20637;SDS011;10478;49.004;8.470;2023-04-08T05:33:31;17.02;;;8.25;;
20637;SDS011;10478;49.004;8.470;2023-04-08T05:35:56;22.40;;;9.10;;
20637;SDS011;10478;49.004;8.470;2023-04-08T05:38:21;21.65;;;9.90;;
20637;SDS011;10478;49.004;8.470;2023-04-08T05:40:46;15.80;;;7.85;;
20637;SDS011;10478;49.004;8.470;2023-04-08T05:43:12;20.02;;;9.63;;
20637;SDS011;10478;49.004;8.470;2023-04-08T05:45:37;18.35;;;8.68;;
20637;SDS011;10478;49.004;8.470;2023-04-08T05:48:02;20.08;;;8.50;;
20637;SDS011;10478;49.004;8.470;2023-04-08T05:50:28;19.88;;;9.95;;
20637;SDS011;10478;49.004;8.470;2023-04-08T05:52:53;22.08;;;10.77;;
20637;SDS011;10478;49.004;8.470;2023-04-08T05:55:18;22.13;;;10.60;;
20637;SDS011;10478;49.004;8.470;2023-04-08T05:57:44;19.10;;;9.45;;
20637;SDS011;10478;49.004;8.470;2023-04-08T06:00:09;57.67;;;29.02;;
20637;SDS011;10478;49.004;8.470;2023-04-08T06:02:35;47.67;;;23.50;;
20637;SDS011;10478;49.004;8.470;2023-04-08T06:05:01;42.60;;;20.48;;
20637;SDS011;10478;49.004;8.470;2023-04-08T06:07:27;17.20;;;10.10;;
20637;SDS011;10478;49.004;8.470;2023-04-08T06:09:53;22.35;;;10.50;;
20637;SDS011;10478;49.004;8.470;2023-04-08T06:12:18;28.38;;;11.23;;
20637;SDS011;10478;49.004;8.470;2023-04-08T06:14:43;20.73;;;9.88;;
20637;SDS011;10478;49.004;8.470;2023-04-08T06:17:09;19.42;;;9.63;;
20637;SDS011;10478;49.004;8.470;2023-04-08T06:19:34;18.15;;;9.45;;
20637;SDS011;10478;49.004;8.470;2023-04-08T06:21:59;13.80;;;7.80;;
20637;SDS011;10478;49.004;8.470;2023-04-08T06:24:25;18.35;;;8.70;;
20637;SDS011;10478;49.004;8.470;2023-04-08T06:26:51;18.15;;;9.00;;
20637;SDS011;10478;49.004;8.470;2023-04-08T06:29:17;19.33;;;9.07;;
20637;SDS011;10478;49.004;8.470;2023-04-08T06:31:43;14.75;;;8.38;;
20637;SDS011;10478;49.004;8.470;2023-04-08T06:34:08;20.90;;;9.43;;
20637;SDS011;10478;49.004;8.470;2023-04-08T06:36:33;16.15;;;8.15;;
20637;SDS011;10478;49.004;8.470;2023-04-08T06:38:59;18.52;;;9.43;;
20637;SDS011;10478;49.004;8.470;2023-04-08T06:41:24;18.77;;;9.23;;
20637;SDS011;10478;49.004;8.470;2023-04-08T06:43:49;22.45;;;9.80;;
20637;SDS011;10478;49.004;8.470;2023-04-08T06:46:15;16.80;;;8.07;;
20637;SDS011;10478;49.004;8.470;2023-04-08T06:48:40;21.67;;;10.05;;
20637;SDS011;10478;49.004;8.470;2023-04-08T06:51:05;18.60;;;8.50;;
20637;SDS011;10478;49.004;8.470;2023-04-08T06:53:31;15.60;;;8.93;;
20637;SDS011;10478;49.004;8.470;2023-04-08T06:55:57;17.88;;;8.52;;
20637;SDS011;10478;49.004;8.470;2023-04-08T06:58:23;16.67;;;9.07;;
20637;SDS011;10478;49.004;8.470;2023-04-08T07:00:48;20.58;;;8.93;;
20637;SDS011;10478;49.004;8.470;2023-04-08T07:03:13;20.52;;;9.20;;
20637;SDS011;10478;49.004;8.470;2023-04-08T07:05:39;17.27;;;9.02;;
20637;SDS011;10478;49.004;8.470;2023-04-08T07:08:06;18.38;;;9.20;;
20637;SDS011;10478;49.004;8.470;2023-04-08T07:10:31;15.93;;;8.27;;
20637;SDS011;10478;49.004;8.470;2023-04-08T07:12:57;20.58;;;8.52;;
20637;SDS011;10478;49.004;8.470;2023-04-08T07:15:22;14.60;;;7.50;;
20637;SDS011;10478;49.004;8.470;2023-04-08T07:17:47;17.38;;;8.25;;
20637;SDS011;10478;49.004;8.470;2023-04-08T07:20:13;16.98;;;8.35;;
20637;SDS011;10478;49.004;8.470;2023-04-08T07:22:38;14.00;;;8.27;;
20637;SDS011;10478;49.004;8.470;2023-04-08T07:25:04;18.50;;;8.98;;
20637;SDS011;10478;49.004;8.470;2023-04-08T07:27:30;19.33;;;9.43;;
20637;SDS011;10478;49.004;8.470;2023-04-08T07:29:56;21.85;;;9.60;;
20637;SDS011;10478;49.004;8.470;2023-04-08T07:32:22;14.23;;;6.90;;
20637;SDS011;10478;49.004;8.470;2023-04-08T07:34:47;25.80;;;12.95;;
20637;SDS011;10478;49.004;8.470;2023-04-08T07:37:12;12.23;;;6.85;;
20637;SDS011;10478;49.004;8.470;2023-04-08T07:39:38;12.35;;;6.70;;
20637;SDS011;10478;49.004;8.470;2023-04-08T07:42:03;13.68;;;7.32;;
20637;SDS011;10478;49.004;8.470;2023-04-08T07:44:28;14.70;;;6.95;;
20637;SDS011;10478;49.004;8.470;2023-04-08T07:46:54;14.15;;;7.70;;
20637;SDS011;10478;49.004;8.470;2023-04-08T07:49:19;12.95;;;7.03;;
20637;SDS011;10478;49.004;8.470;2023-04-08T07:51:45;12.80;;;6.90;;
20637;SDS011;10478;49.004;8.470;2023-04-08T07:54:10;17.85;;;7.00;;
20637;SDS011;10478;49.004;8.470;2023-04-08T07:56:42;12.70;;;7.43;;
20637;SDS011;10478;49.004;8.470;2023-04-08T07:59:09;10.43;;;7.10;;
20637;SDS011;10478;49.004;8.470;2023-04-08T08:01:34;14.95;;;7.60;;
20637;SDS011;10478;49.004;8.470;2023-04-08T08:04:00;16.15;;;7.22;;
20637;SDS011;10478;49.004;8.470;2023-04-08T08:06:25;15.07;;;6.78;;
20637;SDS011;10478;49.004;8.470;2023-04-08T08:08:51;14.85;;;7.85;;
20637;SDS011;10478;49.004;8.470;2023-04-08T08:11:17;18.52;;;7.05;;
20637;SDS011;10478;49.004;8.470;2023-04-08T08:13:42;15.80;;;9.80;;
20637;SDS011;10478;49.004;8.470;2023-04-08T08:16:07;13.75;;;6.93;;
20637;SDS011;10478;49.004;8.470;2023-04-08T08:18:35;18.90;;;9.00;;
20637;SDS011;10478;49.004;8.470;2023-04-08T08:21:01;14.18;;;8.48;;
20637;SDS011;10478;49.004;8.470;2023-04-08T08:23:26;16.13;;;7.47;;
20637;SDS011;10478;49.004;8.470;2023-04-08T08:25:58;16.40;;;8.60;;
20637;SDS011;10478;49.004;8.470;2023-04-08T08:28:27;19.23;;;10.02;;
20637;SDS011;10478;49.004;8.470;2023-04-08T08:30:52;15.57;;;8.70;;
20637;SDS011;10478;49.004;8.470;2023-04-08T08:33:18;18.08;;;8.52;;
20637;SDS011;10478;49.004;8.470;2023-04-08T08:35:43;12.55;;;8.13;;
20637;SDS011;10478;49.004;8.470;2023-04-08T08:38:09;19.13;;;8.80;;
20637;SDS011;10478;49.004;8.470;2023-04-08T08:40:34;14.85;;;7.35;;
20637;SDS011;10478;49.004;8.470;2023-04-08T08:43:00;18.02;;;9.02;;
20637;SDS011;10478;49.004;8.470;2023-04-08T08:45:25;14.77;;;7.90;;
20637;SDS011;10478;49.004;8.470;2023-04-08T08:47:50;13.75;;;7.78;;
20637;SDS011;10478;49.004;8.470;2023-04-08T08:50:16;17.63;;;8.63;;
20637;SDS011;10478;49.004;8.470;2023-04-08T08:52:48;10.95;;;7.25;;
20637;SDS011;10478;49.004;8.470;2023-04-08T08:55:14;15.77;;;8.07;;
20637;SDS011;10478;49.004;8.470;2023-04-08T08:57:42;16.23;;;8.52;;
20637;SDS011;10478;49.004;8.470;2023-04-08T09:00:09;15.25;;;8.98;;
20637;SDS011;10478;49.004;8.470;2023-04-08T09:02:35;11.48;;;8.13;;
20637;SDS011;10478;49.004;8.470;2023-04-08T09:05:03;16.20;;;8.32;;
20637;SDS011;10478;49.004;8.470;2023-04-08T09:07:38;15.07;;;8.35;;
20637;SDS011;10478;49.004;8.470;2023-04-08T09:10:07;15.40;;;9.20;;
20637;SDS011;10478;49.004;8.470;2023-04-08T09:12:34;16.90;;;8.57;;
20637;SDS011;10478;49.004;8.470;2023-04-08T09:15:03;14.35;;;8.80;;
20637;SDS011;10478;49.004;8.470;2023-04-08T09:17:36;16.50;;;8.20;;
20637;SDS011;10478;49.004;8.470;2023-04-08T09:20:03;15.48;;;8.52;;
20637;SDS011;10478;49.004;8.470;2023-04-08T09:22:58;18.35;;;8.27;;
20637;SDS011;10478;49.004;8.470;2023-04-08T09:25:32;13.38;;;8.50;;
20637;SDS011;10478;49.004;8.470;2023-04-08T09:27:58;14.25;;;8.15;;
20637;SDS011;10478;49.004;8.470;2023-04-08T09:30:24;15.40;;;8.52;;
20637;SDS011;10478;49.004;8.470;2023-04-08T09:32:51;14.57;;;8.10;;
20637;SDS011;10478;49.004;8.470;2023-04-08T09:35:21;12.63;;;7.82;;
20637;SDS011;10478;49.004;8.470;2023-04-08T09:37:46;14.27;;;8.15;;
20637;SDS011;10478;49.004;8.470;2023-04-08T09:40:12;14.25;;;7.40;;
20637;SDS011;10478;49.004;8.470;2023-04-08T09:42:40;16.85;;;7.70;;
20637;SDS011;10478;49.004;8.470;2023-04-08T09:45:08;16.02;;;8.32;;
20637;SDS011;10478;49.004;8.470;2023-04-08T09:47:41;12.13;;;7.80;;
20637;SDS011;10478;49.004;8.470;2023-04-08T09:50:31;11.88;;;7.75;;
20637;SDS011;10478;49.004;8.470;2023-04-08T09:53:01;15.85;;;8.30;;
20637;SDS011;10478;49.004;8.470;2023-04-08T09:55:33;11.95;;;7.45;;
20637;SDS011;10478;49.004;8.470;2023-04-08T09:58:01;12.90;;;6.95;;
20637;SDS011;10478;49.004;8.470;2023-04-08T10:00:32;13.10;;;7.78;;
20637;SDS011;10478;49.004;8.470;2023-04-08T10:03:08;11.27;;;7.05;;
20637;SDS011;10478;49.004;8.470;2023-04-08T10:05:36;12.60;;;7.68;;
20637;SDS011;10478;49.004;8.470;2023-04-08T10:08:03;12.82;;;7.80;;
20637;SDS011;10478;49.004;8.470;2023-04-08T10:10:30;14.55;;;8.15;;
20637;SDS011;10478;49.004;8.470;2023-04-08T10:12:55;10.70;;;7.07;;
20637;SDS011;10478;49.004;8.470;2023-04-08T10:15:21;10.52;;;6.85;;
20637;SDS011;10478;49.004;8.470;2023-04-08T10:17:48;15.90;;;7.68;;
20637;SDS011;10478;49.004;8.470;2023-04-08T10:22:57;14.23;;;8.38;;
20637;SDS011;10478;49.004;8.470;2023-04-08T10:25:36;14.02;;;7.80;;
20637;SDS011;10478;49.004;8.470;2023-04-08T10:33:02;15.23;;;8.00;;
20637;SDS011;10478;49.004;8.470;2023-04-08T10:35:35;11.95;;;6.95;;
20637;SDS011;10478;49.004;8.470;2023-04-08T10:38:01;14.50;;;8.25;;
20637;SDS011;10478;49.004;8.470;2023-04-08T10:40:27;12.57;;;7.90;;
20637;SDS011;10478;49.004;8.470;2023-04-08T10:42:53;12.75;;;7.57;;
20637;SDS011;10478;49.004;8.470;2023-04-08T10:45:20;12.40;;;6.78;;
20637;SDS011;10478;49.004;8.470;2023-04-08T10:47:45;14.40;;;7.53;;
20637;SDS011;10478;49.004;8.470;2023-04-08T10:50:14;12.07;;;7.47;;
20637;SDS011;10478;49.004;8.470;2023-04-08T10:52:47;14.05;;;8.45;;
20637;SDS011;10478;49.004;8.470;2023-04-08T10:55:12;11.48;;;8.10;;
20637;SDS011;10478;49.004;8.470;2023-04-08T10:57:38;11.30;;;6.90;;
20637;SDS011;10478;49.004;8.470;2023-04-08T11:00:08;14.65;;;7.32;;
20637;SDS011;10478;49.004;8.470;2023-04-08T11:02:36;12.32;;;7.88;;
20637;SDS011;10478;49.004;8.470;2023-04-08T11:05:02;11.90;;;7.80;;
20637;SDS011;10478;49.004;8.470;2023-04-08T11:07:28;17.23;;;9.23;;
20637;SDS011;10478;49.004;8.470;2023-04-08T11:09:53;15.13;;;8.73;;
20637;SDS011;10478;49.004;8.470;2023-04-08T11:12:19;15.10;;;8.23;;
20637;SDS011;10478;49.004;8.470;2023-04-08T11:14:45;12.98;;;8.18;;
20637;SDS011;10478;49.004;8.470;2023-04-08T11:17:11;13.32;;;7.60;;
20637;SDS011;10478;49.004;8.470;2023-04-08T11:19:39;12.95;;;8.25;;
20637;SDS011;10478;49.004;8.470;2023-04-08T11:22:05;14.25;;;8.65;;
20637;SDS011;10478;49.004;8.470;2023-04-08T11:24:33;14.75;;;7.60;;
20637;SDS011;10478;49.004;8.470;2023-04-08T11:27:00;13.80;;;7.78;;
20637;SDS011;10478;49.004;8.470;2023-04-08T11:29:26;14.90;;;8.82;;
20637;SDS011;10478;49.004;8.470;2023-04-08T11:31:53;16.83;;;8.40;;
20637;SDS011;10478;49.004;8.470;2023-04-08T11:34:22;14.95;;;7.85;;
20637;SDS011;10478;49.004;8.470;2023-04-08T11:36:49;15.20;;;7.25;;
20637;SDS011;10478;49.004;8.470;2023-04-08T11:39:15;12.45;;;7.28;;
20637;SDS011;10478;49.004;8.470;2023-04-08T11:41:40;10.38;;;7.22;;
20637;SDS011;10478;49.004;8.470;2023-04-08T11:44:06;11.95;;;6.88;;
20637;SDS011;10478;49.004;8.470;2023-04-08T11:46:32;10.13;;;6.20;;
20637;SDS011;10478;49.004;8.470;2023-04-08T11:48:59;10.25;;;7.32;;
20637;SDS011;10478;49.004;8.470;2023-04-08T11:51:26;11.18;;;7.07;;
20637;SDS011;10478;49.004;8.470;2023-04-08T11:53:52;11.65;;;6.13;;
20637;SDS011;10478;49.004;8.470;2023-04-08T11:56:18;13.82;;;7.55;;
20637;SDS011;10478;49.004;8.470;2023-04-08T11:58:44;13.18;;;7.10;;
20637;SDS011;10478;49.004;8.470;2023-04-08T12:01:10;16.92;;;7.88;;
20637;SDS011;10478;49.004;8.470;2023-04-08T12:03:35;15.10;;;7.57;;
20637;SDS011;10478;49.004;8.470;2023-04-08T12:06:01;13.27;;;7.72;;
20637;SDS011;10478;49.004;8.470;2023-04-08T12:08:26;13.77;;;8.50;;
20637;SDS011;10478;49.004;8.470;2023-04-08T12:10:52;14.88;;;8.68;;
20637;SDS011;10478;49.004;8.470;2023-04-08T12:13:17;13.25;;;8.35;;
20637;SDS011;10478;49.004;8.470;2023-04-08T12:15:43;16.13;;;9.38;;
20637;SDS011;10478;49.004;8.470;2023-04-08T12:18:08;11.68;;;7.68;;
20637;SDS011;10478;49.004;8.470;2023-04-08T12:20:34;12.38;;;7.70;;
20637;SDS011;10478;49.004;8.470;2023-04-08T12:22:59;11.65;;;7.57;;
20637;SDS011;10478;49.004;8.470;2023-04-08T12:25:24;14.63;;;8.32;;
20637;SDS011;10478;49.004;8.470;2023-04-08T12:27:51;13.93;;;7.40;;
20637;SDS011;10478;49.004;8.470;2023-04-08T12:30:17;11.50;;;7.45;;
20637;SDS011;10478;49.004;8.470;2023-04-08T12:32:42;12.05;;;6.90;;
20637;SDS011;10478;49.004;8.470;2023-04-08T12:35:09;14.77;;;7.43;;
20637;SDS011;10478;49.004;8.470;2023-04-08T12:37:35;14.65;;;7.88;;
20637;SDS011;10478;49.004;8.470;2023-04-08T12:40:00;14.65;;;7.72;;
20637;SDS011;10478;49.004;8.470;2023-04-08T12:42:26;11.95;;;7.18;;
20637;SDS011;10478;49.004;8.470;2023-04-08T12:44:51;12.05;;;7.05;;
20637;SDS011;10478;49.004;8.470;2023-04-08T12:47:17;10.45;;;7.35;;
20637;SDS011;10478;49.004;8.470;2023-04-08T12:49:43;9.82;;;6.22;;
20637;SDS011;10478;49.004;8.470;2023-04-08T12:52:08;11.70;;;6.53;;
20637;SDS011;10478;49.004;8.470;2023-04-08T12:54:33;16.92;;;9.05;;
20637;SDS011;10478;49.004;8.470;2023-04-08T12:56:58;14.52;;;7.13;;
20637;SDS011;10478;49.004;8.470;2023-04-08T12:59:25;14.05;;;8.40;;
20637;SDS011;10478;49.004;8.470;2023-04-08T13:01:50;16.40;;;7.97;;
20637;SDS011;10478;49.004;8.470;2023-04-08T13:04:16;11.68;;;7.25;;
20637;SDS011;10478;49.004;8.470;2023-04-08T13:06:41;18.48;;;8.93;;
20637;SDS011;10478;49.004;8.470;2023-04-08T13:09:07;13.15;;;8.00;;
20637;SDS011;10478;49.004;8.470;2023-04-08T13:11:32;15.65;;;7.90;;
20637;SDS011;10478;49.004;8.470;2023-04-08T13:13:58;12.63;;;7.60;;
20637;SDS011;10478;49.004;8.470;2023-04-08T13:16:23;11.48;;;7.65;;
20637;SDS011;10478;49.004;8.470;2023-04-08T13:18:49;14.45;;;7.57;;
20637;SDS011;10478;49.004;8.470;2023-04-08T13:21:14;15.55;;;8.02;;
20637;SDS011;10478;49.004;8.470;2023-04-08T13:23:40;13.48;;;7.70;;
20637;SDS011;10478;49.004;8.470;2023-04-08T13:26:05;11.30;;;7.35;;
20637;SDS011;10478;49.004;8.470;2023-04-08T13:28:31;13.07;;;7.80;;
20637;SDS011;10478;49.004;8.470;2023-04-08T13:30:56;18.80;;;8.77;;
20637;SDS011;10478;49.004;8.470;2023-04-08T13:33:21;15.65;;;7.93;;
20637;SDS011;10478;49.004;8.470;2023-04-08T13:35:47;12.90;;;7.78;;
20637;SDS011;10478;49.004;8.470;2023-04-08T13:38:12;16.10;;;8.52;;
20637;SDS011;10478;49.004;8.470;2023-04-08T13:40:37;15.40;;;7.75;;
20637;SDS011;10478;49.004;8.470;2023-04-08T13:43:03;14.73;;;6.65;;
20637;SDS011;10478;49.004;8.470;2023-04-08T13:45:29;12.38;;;7.53;;
20637;SDS011;10478;49.004;8.470;2023-04-08T13:47:54;11.38;;;7.35;;
20637;SDS011;10478;49.004;8.470;2023-04-08T13:50:20;10.85;;;6.65;;
20637;SDS011;10478;49.004;8.470;2023-04-08T13:52:46;12.77;;;7.32;;
20637;SDS011;10478;49.004;8.470;2023-04-08T13:55:11;11.57;;;6.88;;
20637;SDS011;10478;49.004;8.470;2023-04-08T13:57:36;9.77;;;6.32;;
20637;SDS011;10478;49.004;8.470;2023-04-08T14:00:02;7.95;;;5.82;;
20637;SDS011;10478;49.004;8.470;2023-04-08T14:02:28;10.05;;;5.40;;
20637;SDS011;10478;49.004;8.470;2023-04-08T14:04:53;10.05;;;5.85;;
20637;SDS011;10478;49.004;8.470;2023-04-08T14:07:19;10.63;;;5.43;;
20637;SDS011;10478;49.004;8.470;2023-04-08T14:09:44;8.98;;;5.35;;
20637;SDS011;10478;49.004;8.470;2023-04-08T14:12:10;7.55;;;4.75;;
20637;SDS011;10478;49.004;8.470;2023-04-08T14:14:35;10.35;;;5.55;;
20637;SDS011;10478;49.004;8.470;2023-04-08T14:17:00;9.23;;;5.50;;
20637;SDS011;10478;49.004;8.470;2023-04-08T14:19:26;10.45;;;5.80;;
20637;SDS011;10478;49.004;8.470;2023-04-08T14:21:51;9.60;;;5.72;;
20637;SDS011;10478;49.004;8.470;2023-04-08T14:24:16;8.63;;;4.32;;
20637;SDS011;10478;49.004;8.470;2023-04-08T14:26:42;9.10;;;5.22;;
20637;SDS011;10478;49.004;8.470;2023-04-08T14:29:07;8.52;;;5.65;;
20637;SDS011;10478;49.004;8.470;2023-04-08T14:31:33;8.68;;;5.80;;
20637;SDS011;10478;49.004;8.470;2023-04-08T14:33:59;8.90;;;6.07;;
20637;SDS011;10478;49.004;8.470;2023-04-08T14:36:25;13.30;;;5.60;;
20637;SDS011;10478;49.004;8.470;2023-04-08T14:38:51;11.45;;;6.43;;
20637;SDS011;10478;49.004;8.470;2023-04-08T14:41:17;12.02;;;7.05;;
20637;SDS011;10478;49.004;8.470;2023-04-08T14:43:42;10.52;;;6.15;;
20637;SDS011;10478;49.004;8.470;2023-04-08T14:46:07;9.48;;;5.30;;